LNG Dream — C6VO5 — position and weather

sailwx.info

Track history (hours):
 
Tides and Currents Weather Stations Pressure Air Temp Water Temp Dewpoint Dewpoint Depression Visibility Wind Speed Wind Dir Waves Ship Positions

LNG Dream

Last reported at 2018-May-20 05:46 UTC. Time now 2018-May-20 15:49 UTC.
Position N 33°42' E 134°54'.

Length 289.6 m; beam 49 m.

Type: Ship (hazmat cat A). MMSI: 309065000.

Date/timePositionNaut miles runAvg speedWind from/ knotsBaromVisibWave heightAir tempDewpointWater temp
2018-May-20 05:46N 33°42' E 134°54'414.6
2018-May-20 05:30N 33°46' E 134°54'714.3
2018-May-20 05:00N 33°53' E 134°55'713.9
2018-May-20 04:31N 33°60' E 134°56'714.0
2018-May-20 04:00N 34°07' E 134°57'713.2
2018-May-20 03:30N 34°13' E 134°58'613.1
2018-May-20 03:00N 34°20' E 134°59'714.1
2018-May-20 02:31N 34°26' E 135°04'815.4
2018-May-20 02:01N 34°30' E 135°12'713.9
2018-May-20 01:30N 34°33' E 135°19'5 9.3
2018-May-20 01:00N 34°33' E 135°25'0 0.6
2018-May-20 00:30N 34°33' E 135°25'0 0.0
2018-May-19 01:18N 34°33' E 135°25'0 1.4
2018-May-19 01:00N 34°33' E 135°24'3 6.4
2018-May-19 00:30N 34°33' E 135°20'5 9.8
2018-May-19 00:00N 34°31' E 135°15'612.7
2018-May-18 23:30N 34°27' E 135°09'612.7
2018-May-18 23:00N 34°23' E 135°04'714.3
2018-May-18 22:30N 34°17' E 134°59'612.3
2018-May-18 22:00N 34°11' E 134°59'3 6.7
2018-May-18 21:30N 34°07' E 134°59'4 7.1
2018-May-18 21:00N 34°04' E 134°59'4 7.4
2018-May-18 20:30N 33°60' E 134°58'510.1
2018-May-18 20:00N 33°55' E 134°57'510.7
2018-May-18 19:30N 33°50' E 134°56'611.9
2018-May-18 18:59N 33°44' E 134°54'4 9.4
2018-May-18 18:30N 33°40' E 134°58'713.2
2018-May-18 18:00N 33°40' E 135°06'613.0
2018-May-18 17:30N 33°34' E 135°07'713.6
2018-May-18 16:59N 33°28' E 135°02'  
Track history (hours):
 
Tides and Currents Weather Stations Pressure Air Temp Water Temp Dewpoint Dewpoint Depression Visibility Wind Speed Wind Dir Waves Ship Positions

LNG Dream

Last reported at 2018-May-20 05:46 UTC. Time now 2018-May-20 15:49 UTC.
Position N 33°42' E 134°54'.

Length 289.6 m; beam 49 m.

Type: Ship (hazmat cat A). MMSI: 309065000.

Date/timePositionNaut miles runAvg speedWind from/ knotsBaromVisibWave heightAir tempDewpointWater temp
2018-May-20 05:46N 33°42' E 134°54'414.6
2018-May-20 05:30N 33°46' E 134°54'714.3
2018-May-20 05:00N 33°53' E 134°55'713.9
2018-May-20 04:31N 33°60' E 134°56'714.0
2018-May-20 04:00N 34°07' E 134°57'713.2
2018-May-20 03:30N 34°13' E 134°58'613.1
2018-May-20 03:00N 34°20' E 134°59'714.1
2018-May-20 02:31N 34°26' E 135°04'815.4
2018-May-20 02:01N 34°30' E 135°12'713.9
2018-May-20 01:30N 34°33' E 135°19'5 9.3
2018-May-20 01:00N 34°33' E 135°25'0 0.6
2018-May-20 00:30N 34°33' E 135°25'0 0.0
2018-May-19 01:18N 34°33' E 135°25'0 1.4
2018-May-19 01:00N 34°33' E 135°24'3 6.4
2018-May-19 00:30N 34°33' E 135°20'5 9.8
2018-May-19 00:00N 34°31' E 135°15'612.7
2018-May-18 23:30N 34°27' E 135°09'612.7
2018-May-18 23:00N 34°23' E 135°04'714.3
2018-May-18 22:30N 34°17' E 134°59'612.3
2018-May-18 22:00N 34°11' E 134°59'3 6.7
2018-May-18 21:30N 34°07' E 134°59'4 7.1
2018-May-18 21:00N 34°04' E 134°59'4 7.4
2018-May-18 20:30N 33°60' E 134°58'510.1
2018-May-18 20:00N 33°55' E 134°57'510.7
2018-May-18 19:30N 33°50' E 134°56'611.9
2018-May-18 18:59N 33°44' E 134°54'4 9.4
2018-May-18 18:30N 33°40' E 134°58'713.2
2018-May-18 18:00N 33°40' E 135°06'613.0
2018-May-18 17:30N 33°34' E 135°07'713.6
2018-May-18 16:59N 33°28' E 135°02'  

Dump ship's entire track history